Terminal Aerodrome Forecast
Issued by NWS Detroit/Pontiac, MI

Home | Current Version | Previous Version | Text Only | Print | Product List | Glossary On
Versions: 1 2 3 4 5 6 7 8 9 10 11 12 13 14 15 16 17 18 19 20 21 22 23
439
FTUS43 KDTX 190912 AAA
TAFFNT
TAF AMD
KFNT 190912Z 1909/2006 24006KT P6SM OVC007
     FM191800 20005KT P6SM OVC010
     FM200000 12004KT P6SM BKN006 OVC120
      TEMPO 2000/2004 SCT006 OVC120=

USA.gov is the U.S. government's official web portal to all federal, state and local government web resources and services.